Time;durP1;ratioP1;P1;durP2;ratioP2;P2;SDS_P1;SDS_P2;PMS_P1;PMS_P2;Temp;Humidity;BMP_temperature;BMP_pressure;BME280_temperature;BME280_humidity;BME280_pressure;Samples;Min_cycle;Max_cycle;Signal;HPM_P1;HPM_P2
2022/12/20 00:01:16;;;;;;;3.25;0.50;;;9.60;99.90;;;;;;6221843;22;20416;-88
2022/12/20 00:03:43;;;;;;;1.83;0.60;;;9.50;99.90;;;;;;6221649;22;20558;-87
2022/12/20 00:06:10;;;;;;;1.52;0.50;;;9.60;99.90;;;;;;6224007;22;20061;-89
2022/12/20 00:08:37;;;;;;;2.28;0.60;;;9.60;99.90;;;;;;6249290;22;20004;-89
2022/12/20 00:11:05;;;;;;;2.17;0.63;;;9.60;99.90;;;;;;6223708;22;20110;-87
2022/12/20 00:13:31;;;;;;;1.98;0.52;;;9.60;99.90;;;;;;6223443;22;20466;-87
2022/12/20 00:16:11;;;;;;;1.27;0.40;;;9.50;99.90;;;;;;6276290;22;20007;-88
2022/12/20 00:18:37;;;;;;;1.48;0.50;;;9.40;99.90;;;;;;6224118;22;20058;-88
2022/12/20 00:21:05;;;;;;;2.10;0.50;;;9.40;99.90;;;;;;6274908;22;20419;-89
2022/12/20 00:23:32;;;;;;;2.42;0.50;;;9.50;99.90;;;;;;6224486;22;20019;-87
2022/12/20 00:26:12;;;;;;;1.60;0.50;;;9.60;99.90;;;;;;6249155;22;20094;-89
2022/12/20 00:28:39;;;;;;;1.30;0.50;;;9.50;99.90;;;;;;6249014;22;20007;-84
2022/12/20 00:31:06;;;;;;;1.52;0.50;;;9.60;99.90;;;;;;6250060;22;20011;-88
2022/12/20 00:33:34;;;;;;;2.15;0.50;;;9.70;99.90;;;;;;6249782;22;20357;-91
2022/12/20 00:36:00;;;;;;;2.25;0.50;;;9.80;99.90;;;;;;6225198;22;20034;-87
2022/12/20 00:38:26;;;;;;;1.45;0.45;;;9.80;99.90;;;;;;6250764;22;20442;-88
2022/12/20 00:41:06;;;;;;;1.33;0.47;;;9.80;99.90;;;;;;6223670;22;20045;-88
2022/12/20 00:43:33;;;;;;;1.07;0.30;;;10.00;99.90;;;;;;6250222;22;20448;-91
2022/12/20 00:45:59;;;;;;;1.92;0.40;;;10.00;99.90;;;;;;6223910;22;20710;-87
2022/12/20 00:48:25;;;;;;;2.00;0.50;;;10.10;99.90;;;;;;6224280;22;20003;-87
2022/12/20 00:50:51;;;;;;;2.50;0.45;;;10.10;99.90;;;;;;6276325;22;20008;-89
2022/12/20 00:53:18;;;;;;;1.42;0.40;;;10.00;99.90;;;;;;6223852;22;20590;-90
2022/12/20 00:55:45;;;;;;;1.30;0.40;;;10.10;99.90;;;;;;6275401;22;20015;-90
2022/12/20 00:58:12;;;;;;;1.35;0.50;;;10.00;99.90;;;;;;6248124;22;20026;-89
2022/12/20 01:00:38;;;;;;;1.42;0.50;;;10.20;99.90;;;;;;6222647;22;20004;-87
2022/12/20 01:03:06;;;;;;;1.30;0.40;;;10.20;99.90;;;;;;6222816;22;20016;-90
2022/12/20 01:05:32;;;;;;;1.65;0.40;;;10.10;99.90;;;;;;6247525;22;20008;-88
2022/12/20 01:07:59;;;;;;;1.40;0.40;;;10.20;99.90;;;;;;6248335;22;20007;-89
2022/12/20 01:10:25;;;;;;;1.02;0.38;;;10.20;99.90;;;;;;6222240;22;20003;-89
2022/12/20 01:12:50;;;;;;;1.00;0.40;;;10.20;99.90;;;;;;6222884;22;20007;-88
2022/12/20 01:15:16;;;;;;;1.10;0.40;;;10.10;99.90;;;;;;6221973;22;20411;-89
2022/12/20 01:17:42;;;;;;;1.25;0.50;;;10.20;99.90;;;;;;6248923;22;20316;-88
2022/12/20 01:20:08;;;;;;;1.27;0.40;;;10.20;99.90;;;;;;6223062;22;20142;-90
2022/12/20 01:22:34;;;;;;;1.42;0.40;;;10.20;99.90;;;;;;6248450;22;20432;-89
2022/12/20 01:25:00;;;;;;;1.73;0.45;;;10.10;99.90;;;;;;6223352;22;20039;-90
2022/12/20 01:27:27;;;;;;;1.27;0.40;;;10.20;99.90;;;;;;6223126;22;20339;-91
2022/12/20 01:29:53;;;;;;;2.05;0.40;;;10.20;99.90;;;;;;6223044;22;20031;-88
2022/12/20 01:32:19;;;;;;;0.90;0.35;;;10.10;99.90;;;;;;6223131;22;20030;-89
2022/12/20 01:34:45;;;;;;;1.52;0.40;;;10.20;99.90;;;;;;6275198;22;20005;-89
2022/12/20 01:37:11;;;;;;;1.00;0.30;;;10.40;99.90;;;;;;6222177;22;20042;-89
2022/12/20 01:39:37;;;;;;;1.23;0.45;;;10.20;99.90;;;;;;6222648;22;20120;-87
2022/12/20 01:42:03;;;;;;;1.45;0.40;;;10.20;99.90;;;;;;6273928;22;20018;-91
2022/12/20 01:44:29;;;;;;;1.00;0.30;;;10.20;99.90;;;;;;6248237;22;20432;-91
2022/12/20 01:46:55;;;;;;;2.38;0.50;;;10.20;99.90;;;;;;6223315;22;20004;-91
2022/12/20 01:49:33;;;;;;;0.98;0.30;;;10.20;99.90;;;;;;6223085;22;20079;-90
2022/12/20 01:52:07;;;;;;;1.08;0.30;;;10.20;99.90;;;;;;6247714;22;20030;-86
2022/12/20 01:54:44;;;;;;;1.10;0.40;;;10.20;99.90;;;;;;6247005;22;20039;-85
2022/12/20 01:57:19;;;;;;;1.90;0.40;;;10.10;99.90;;;;;;6247611;22;20008;-86
2022/12/20 01:59:47;;;;;;;0.85;0.32;;;10.00;99.90;;;;;;6247458;22;20027;-85
2022/12/20 02:02:13;;;;;;;1.95;0.40;;;10.00;99.90;;;;;;6222011;22;20174;-85
2022/12/20 02:04:39;;;;;;;3.38;0.40;;;9.90;99.90;;;;;;6247243;22;20085;-86
2022/12/20 02:07:06;;;;;;;1.02;0.43;;;9.80;99.90;;;;;;6246756;22;20008;-85
2022/12/20 02:09:34;;;;;;;1.10;0.40;;;9.70;99.90;;;;;;6221820;22;20019;-85
2022/12/20 02:12:18;;;;;;;1.30;0.40;;;9.70;99.90;;;;;;6222097;22;20012;-85
2022/12/20 02:15:08;;;;;;;2.20;0.40;;;9.70;99.90;;;;;;6221787;22;20355;-84
2022/12/20 02:17:58;;;;;;;1.25;0.40;;;9.60;99.90;;;;;;6221349;22;20081;-86
2022/12/20 02:20:37;;;;;;;1.35;0.40;;;9.60;99.90;;;;;;6246975;22;20043;-84
2022/12/20 02:23:44;;;;;;;2.00;0.50;;;9.50;99.90;;;;;;6246651;22;20018;-85
2022/12/20 02:26:38;;;;;;;1.58;0.40;;;9.50;99.90;;;;;;6246317;22;20015;-85
2022/12/20 02:29:24;;;;;;;1.75;0.50;;;9.50;99.90;;;;;;6246166;22;20012;-83
2022/12/20 02:32:06;;;;;;;2.17;0.40;;;9.50;99.90;;;;;;6273413;22;20011;-83
2022/12/20 02:34:35;;;;;;;2.25;0.50;;;9.50;99.90;;;;;;6246047;22;20525;-84
2022/12/20 02:37:02;;;;;;;1.50;0.60;;;9.40;99.90;;;;;;6245538;22;20008;-83
2022/12/20 02:39:29;;;;;;;1.98;0.40;;;9.40;99.90;;;;;;6245788;22;20023;-84
2022/12/20 02:42:18;;;;;;;1.83;0.50;;;9.40;99.90;;;;;;6245617;22;20018;-83
2022/12/20 02:47:48;;;;;;;1.10;0.40;;;9.40;99.90;;;;;;6235091;22;20012;-84
2022/12/20 02:50:22;;;;;;;0.90;0.40;;;9.30;99.90;;;;;;6245113;22;20014;-86
2022/12/20 02:52:50;;;;;;;1.13;0.40;;;9.40;99.90;;;;;;6246401;22;20007;-83
2022/12/20 02:55:17;;;;;;;1.13;0.38;;;9.30;99.90;;;;;;6220887;22;20011;-86
2022/12/20 02:57:55;;;;;;;1.05;0.30;;;9.30;99.90;;;;;;6221549;22;20414;-88
2022/12/20 03:00:22;;;;;;;1.33;0.40;;;9.30;99.90;;;;;;6272688;22;20038;-85
2022/12/20 03:05:42;;;;;;;2.35;0.40;;;9.30;99.90;;;;;;6246479;22;20035;-86
2022/12/20 03:08:09;;;;;;;2.20;0.50;;;9.30;99.90;;;;;;6221700;22;20142;-85
2022/12/20 03:10:34;;;;;;;1.73;0.40;;;9.30;99.90;;;;;;6246621;22;20400;-85
2022/12/20 03:13:00;;;;;;;1.58;0.40;;;9.40;99.90;;;;;;6221353;22;20004;-87
2022/12/20 03:15:28;;;;;;;1.00;0.40;;;9.40;99.90;;;;;;6221199;22;20007;-86
2022/12/20 03:17:56;;;;;;;1.73;0.40;;;9.30;99.90;;;;;;6216272;23;20016;-85
2022/12/20 03:20:22;;;;;;;2.13;0.40;;;9.40;99.90;;;;;;6244493;22;20016;-85
2022/12/20 03:22:47;;;;;;;1.00;0.40;;;9.40;99.90;;;;;;6273126;22;20011;-85
2022/12/20 03:25:13;;;;;;;1.30;0.30;;;9.30;99.90;;;;;;6246640;22;20011;-85
2022/12/20 03:27:39;;;;;;;1.73;0.40;;;9.30;99.90;;;;;;6247272;22;20004;-87
2022/12/20 03:30:06;;;;;;;1.52;0.50;;;9.30;99.90;;;;;;6247315;22;20344;-86
2022/12/20 03:32:34;;;;;;;0.90;0.40;;;9.40;99.90;;;;;;6246645;22;20335;-89
2022/12/20 03:35:00;;;;;;;1.45;0.30;;;9.30;99.90;;;;;;6246231;22;20046;-88
2022/12/20 03:37:31;;;;;;;1.10;0.40;;;9.40;99.90;;;;;;6222187;22;20004;-86
2022/12/20 03:39:57;;;;;;;2.55;0.47;;;9.40;99.90;;;;;;6247702;22;20015;-88
2022/12/20 03:42:23;;;;;;;1.75;0.50;;;9.40;99.90;;;;;;6222708;22;20340;-86
2022/12/20 03:44:49;;;;;;;1.30;0.40;;;9.40;99.90;;;;;;6275876;22;20003;-87
2022/12/20 03:47:15;;;;;;;1.65;0.50;;;9.40;99.90;;;;;;6220294;22;20032;-86
2022/12/20 03:49:41;;;;;;;1.10;0.40;;;9.40;99.90;;;;;;6223628;22;20095;-88
2022/12/20 03:52:08;;;;;;;1.50;0.60;;;9.40;99.90;;;;;;6248857;22;20035;-87
2022/12/20 03:54:33;;;;;;;1.13;0.50;;;9.50;99.90;;;;;;6276045;22;20424;-87
2022/12/20 03:57:05;;;;;;;2.65;0.40;;;9.50;99.90;;;;;;6219044;23;20012;-88
2022/12/20 03:59:31;;;;;;;2.28;0.43;;;9.40;99.90;;;;;;6223322;22;20061;-90
2022/12/20 04:01:58;;;;;;;1.83;0.40;;;9.50;99.90;;;;;;6248795;22;20442;-86
2022/12/20 04:04:27;;;;;;;1.23;0.40;;;9.50;99.90;;;;;;6223640;22;20018;-88
2022/12/20 04:06:52;;;;;;;1.98;0.50;;;9.60;99.90;;;;;;6248307;22;20050;-88
2022/12/20 04:09:18;;;;;;;1.80;0.88;;;9.60;99.90;;;;;;6222927;22;20011;-87
2022/12/20 04:11:48;;;;;;;2.05;0.68;;;9.70;99.90;;;;;;6224100;22;20004;-86
2022/12/20 04:14:14;;;;;;;1.38;0.52;;;9.70;99.90;;;;;;6222677;22;20086;-85
2022/12/20 04:16:40;;;;;;;1.45;0.50;;;9.80;99.90;;;;;;6223084;22;20031;-87
2022/12/20 04:19:07;;;;;;;1.50;0.50;;;9.80;99.90;;;;;;6223731;22;20015;-89
2022/12/20 04:21:38;;;;;;;1.85;0.50;;;9.90;99.90;;;;;;6224492;22;20031;-85
2022/12/20 04:24:04;;;;;;;1.95;0.50;;;9.90;99.90;;;;;;6248674;22;20386;-87
2022/12/20 04:26:42;;;;;;;2.88;0.60;;;9.90;99.90;;;;;;6226081;22;20012;-84
2022/12/20 04:29:08;;;;;;;1.02;0.40;;;9.90;99.90;;;;;;6223709;22;20482;-87
2022/12/20 04:31:35;;;;;;;1.17;0.40;;;9.90;99.90;;;;;;6247924;22;20008;-87
2022/12/20 04:34:00;;;;;;;2.80;0.50;;;9.90;99.90;;;;;;6248944;22;20042;-88
2022/12/20 04:36:29;;;;;;;2.45;0.65;;;10.00;99.90;;;;;;6248144;22;20007;-86
2022/12/20 04:38:57;;;;;;;1.67;0.40;;;10.10;99.90;;;;;;6248491;22;20019;-87
2022/12/20 04:41:22;;;;;;;1.70;0.40;;;10.10;99.90;;;;;;6248219;22;20451;-87
2022/12/20 04:43:54;;;;;;;;;;;10.10;99.90;;;;;;6225159;22;20007;-87
2022/12/20 04:46:23;;;;;;;1.02;0.40;;;10.10;99.90;;;;;;6247910;22;19914;-86
2022/12/20 04:48:50;;;;;;;1.80;0.50;;;10.10;99.90;;;;;;6223573;22;20031;-88
2022/12/20 04:51:17;;;;;;;2.17;0.60;;;10.10;99.90;;;;;;6247796;22;20515;-89
2022/12/20 04:53:49;;;;;;;1.70;0.50;;;10.20;99.90;;;;;;6248462;22;20027;-89
2022/12/20 04:56:34;;;;;;;1.20;0.40;;;10.30;99.90;;;;;;6248942;22;20008;-88
2022/12/20 04:59:07;;;;;;;1.50;0.50;;;10.20;99.90;;;;;;6248593;22;20015;-89
2022/12/20 05:01:33;;;;;;;2.28;0.40;;;10.20;99.90;;;;;;6247768;22;20011;-90
2022/12/20 05:03:59;;;;;;;2.25;0.43;;;10.10;99.90;;;;;;6250542;22;20122;-89
2022/12/20 05:06:28;;;;;;;1.80;0.35;;;10.10;99.90;;;;;;6223996;22;20006;-91
2022/12/20 05:08:55;;;;;;;1.35;0.40;;;10.10;99.90;;;;;;6248357;22;20371;-90
2022/12/20 05:11:20;;;;;;;1.10;0.40;;;10.10;99.90;;;;;;6222972;22;20019;-90
2022/12/20 05:13:46;;;;;;;1.75;0.40;;;10.10;99.90;;;;;;6222916;22;20007;-88
2022/12/20 05:16:15;;;;;;;1.33;0.50;;;10.20;99.90;;;;;;6247532;22;20007;-92
2022/12/20 05:18:41;;;;;;;3.75;0.70;;;10.20;99.90;;;;;;6248410;22;20468;-88
2022/12/20 05:26:49;;;;;;;1.85;0.50;;;10.10;99.90;;;;;;6248493;22;20029;-91
2022/12/20 05:29:17;;;;;;;1.30;0.50;;;10.10;99.90;;;;;;6248820;22;20049;-86
2022/12/20 05:31:43;;;;;;;3.08;0.60;;;10.10;99.90;;;;;;6248827;22;20004;-89
2022/12/20 05:34:09;;;;;;;1.50;0.50;;;10.10;99.90;;;;;;6222381;22;20058;-87
2022/12/20 05:36:36;;;;;;;1.55;0.50;;;10.00;99.90;;;;;;6223108;22;20049;-87
2022/12/20 05:39:05;;;;;;;1.35;0.40;;;10.00;99.90;;;;;;6223359;22;20019;-88
2022/12/20 05:41:33;;;;;;;0.85;0.32;;;10.00;99.90;;;;;;6247677;22;20008;-88
2022/12/20 05:44:00;;;;;;;1.85;0.40;;;9.90;99.90;;;;;;6247539;22;20050;-87
2022/12/20 05:46:27;;;;;;;3.45;0.50;;;9.90;99.90;;;;;;6222740;22;20356;-87
2022/12/20 05:48:58;;;;;;;1.10;0.40;;;9.80;99.90;;;;;;6248181;22;20007;-88
2022/12/20 05:51:24;;;;;;;0.90;0.40;;;9.90;99.90;;;;;;6247874;22;20007;-89
2022/12/20 05:54:13;;;;;;;1.30;0.40;;;9.90;99.90;;;;;;6247529;22;20007;-85
2022/12/20 05:57:11;;;;;;;1.83;0.50;;;9.90;99.90;;;;;;6239581;22;20011;-90
2022/12/20 05:59:39;;;;;;;1.30;0.50;;;9.80;99.90;;;;;;6246734;22;20201;-88
2022/12/20 06:02:11;;;;;;;1.52;0.40;;;9.90;99.90;;;;;;6222158;22;20027;-87
2022/12/20 06:04:37;;;;;;;1.80;0.40;;;9.90;99.90;;;;;;6221562;22;20011;-89
2022/12/20 06:07:10;;;;;;;0.98;0.30;;;9.90;99.90;;;;;;6247036;22;20000;-88
2022/12/20 06:09:36;;;;;;;1.00;0.40;;;9.90;99.90;;;;;;6220103;22;20014;-90
2022/12/20 06:12:09;;;;;;;1.17;0.30;;;9.90;99.90;;;;;;6222849;22;20025;-87
2022/12/20 06:14:37;;;;;;;3.47;0.50;;;9.90;99.90;;;;;;6221167;22;20042;-90
2022/12/20 06:17:04;;;;;;;3.47;0.40;;;10.00;99.90;;;;;;6221237;22;20012;-91
2022/12/20 06:19:31;;;;;;;2.30;0.40;;;10.00;99.90;;;;;;6246432;22;20098;-87
2022/12/20 06:21:58;;;;;;;1.42;0.40;;;10.00;99.90;;;;;;6246697;22;20087;-90
2022/12/20 06:24:31;;;;;;;1.52;0.45;;;10.00;99.90;;;;;;6220047;22;20012;-89
2022/12/20 06:26:57;;;;;;;1.73;0.40;;;10.20;99.90;;;;;;6199317;22;20004;-87
2022/12/20 06:29:25;;;;;;;2.78;0.50;;;10.20;99.90;;;;;;6208284;22;20018;-89
2022/12/20 06:31:58;;;;;;;1.83;0.40;;;10.10;99.90;;;;;;6234573;22;20011;-90
2022/12/20 06:34:24;;;;;;;1.63;0.40;;;10.10;99.90;;;;;;6184580;22;20007;-88
2022/12/20 07:53:58;;;;;;;2.15;0.65;;;9.80;99.90;;;;;;6295988;22;20042;-92
2022/12/20 07:56:25;;;;;;;1.35;0.50;;;9.90;99.90;;;;;;6278897;22;20023;-81
2022/12/20 07:58:57;;;;;;;0.98;0.40;;;9.90;99.90;;;;;;6277068;22;20375;-81
2022/12/20 08:01:25;;;;;;;2.67;0.50;;;9.90;99.90;;;;;;6253839;22;20018;-82
2022/12/20 08:03:57;;;;;;;1.00;0.35;;;9.80;99.90;;;;;;6279090;22;20015;-82
2022/12/20 08:06:23;;;;;;;2.00;0.40;;;9.80;99.90;;;;;;6252619;22;20011;-81
2022/12/20 08:08:53;;;;;;;1.05;0.30;;;9.90;99.90;;;;;;6277590;22;20427;-81
2022/12/20 08:11:21;;;;;;;2.22;0.32;;;9.90;99.90;;;;;;6251727;22;20007;-82
2022/12/20 08:13:49;;;;;;;2.78;0.40;;;9.90;99.90;;;;;;6278377;22;20419;-81
2022/12/20 08:16:15;;;;;;;1.48;0.60;;;10.00;99.90;;;;;;6252374;22;20008;-82
2022/12/20 08:18:41;;;;;;;0.80;0.30;;;10.00;99.90;;;;;;6250640;22;20023;-81
2022/12/20 08:21:07;;;;;;;1.20;0.30;;;9.90;99.90;;;;;;6276783;22;20083;-82
2022/12/20 08:23:33;;;;;;;0.98;0.35;;;9.90;99.90;;;;;;6277677;22;20136;-81
2022/12/20 08:26:00;;;;;;;1.13;0.32;;;10.00;99.90;;;;;;6248960;22;20159;-81
2022/12/20 08:28:26;;;;;;;1.50;0.32;;;10.00;99.90;;;;;;6247468;22;20007;-81
2022/12/20 08:30:52;;;;;;;1.00;0.40;;;10.10;99.90;;;;;;6250736;22;20461;-81
2022/12/20 08:33:18;;;;;;;3.45;0.30;;;10.00;99.90;;;;;;6254301;22;20065;-82
2022/12/20 08:35:44;;;;;;;0.90;0.30;;;10.10;99.90;;;;;;6279895;22;20015;-82
2022/12/20 08:38:10;;;;;;;1.17;0.40;;;10.10;99.90;;;;;;6252595;22;20506;-80
2022/12/20 08:40:36;;;;;;;2.08;0.38;;;10.10;99.90;;;;;;6278090;22;20081;-81
2022/12/20 08:43:01;;;;;;;1.77;0.40;;;10.10;99.90;;;;;;6253651;22;20014;-80
2022/12/20 08:45:27;;;;;;;1.20;0.40;;;10.10;99.90;;;;;;6279858;22;20521;-81
2022/12/20 08:47:56;;;;;;;2.10;0.40;;;10.20;99.90;;;;;;6281466;22;20065;-79
2022/12/20 08:50:22;;;;;;;1.42;0.40;;;10.30;99.90;;;;;;6251957;22;20401;-81
2022/12/20 08:52:48;;;;;;;4.07;0.50;;;10.30;99.90;;;;;;6278842;22;20007;-80
2022/12/20 08:55:15;;;;;;;1.33;0.40;;;10.40;99.90;;;;;;6277691;22;20443;-81
2022/12/20 08:57:41;;;;;;;1.25;0.30;;;10.30;99.90;;;;;;6271067;22;20033;-81
2022/12/20 09:00:07;;;;;;;1.95;0.40;;;10.20;99.90;;;;;;6277615;22;20020;-79
2022/12/20 09:02:34;;;;;;;1.65;0.40;;;10.20;99.90;;;;;;6251879;22;20426;-80
2022/12/20 09:04:59;;;;;;;1.23;0.30;;;10.20;99.90;;;;;;6245406;22;20121;-80
2022/12/20 09:07:25;;;;;;;1.75;0.30;;;10.10;99.90;;;;;;6270849;22;20003;-80
2022/12/20 09:09:51;;;;;;;1.23;0.30;;;10.10;99.90;;;;;;6277012;22;20083;-80
2022/12/20 09:12:17;;;;;;;1.02;0.30;;;10.00;99.90;;;;;;6281037;22;20447;-80
2022/12/20 09:14:44;;;;;;;1.70;0.32;;;10.00;99.90;;;;;;6278873;22;20128;-81
2022/12/20 09:17:09;;;;;;;1.17;0.40;;;10.00;99.90;;;;;;6278638;22;20019;-82
2022/12/20 09:19:35;;;;;;;1.88;0.50;;;10.00;99.90;;;;;;6280519;22;20025;-79
2022/12/20 09:22:01;;;;;;;2.10;0.43;;;10.00;99.90;;;;;;6279663;22;20487;-80
2022/12/20 09:24:27;;;;;;;0.90;0.40;;;9.90;99.90;;;;;;6279263;22;20007;-80
2022/12/20 09:26:52;;;;;;;1.90;0.40;;;9.90;99.90;;;;;;6281735;22;20011;-80
2022/12/20 09:29:18;;;;;;;1.52;0.40;;;9.90;99.90;;;;;;6279641;22;20507;-80
2022/12/20 09:31:44;;;;;;;2.22;0.50;;;9.90;99.90;;;;;;6250623;22;20015;-80
2022/12/20 09:34:11;;;;;;;2.20;0.40;;;9.80;99.90;;;;;;6280156;22;20007;-80
2022/12/20 09:36:37;;;;;;;0.65;0.30;;;9.80;99.90;;;;;;6253535;22;20015;-81
2022/12/20 09:39:03;;;;;;;1.40;0.43;;;9.80;99.90;;;;;;6254504;22;20023;-80
2022/12/20 09:41:43;;;;;;;1.30;0.30;;;9.80;99.90;;;;;;6277162;22;20038;-79
2022/12/20 09:44:29;;;;;;;1.65;0.32;;;9.70;99.90;;;;;;6254464;22;20011;-80
2022/12/20 09:47:00;;;;;;;1.38;0.35;;;9.70;99.90;;;;;;6253834;22;20505;-81
2022/12/20 09:49:34;;;;;;;1.52;0.30;;;9.70;99.90;;;;;;6283258;22;20003;-81
2022/12/20 09:52:45;;;;;;;1.58;0.30;;;9.70;99.90;;;;;;6278388;22;20011;-80
2022/12/20 09:55:48;;;;;;;1.45;0.30;;;9.70;99.90;;;;;;6278956;22;20023;-79
2022/12/20 09:58:23;;;;;;;1.33;0.30;;;9.70;99.90;;;;;;6272246;22;20018;-80
2022/12/20 10:00:49;;;;;;;2.42;0.30;;;9.80;99.90;;;;;;6277616;22;20011;-79
2022/12/20 10:03:28;;;;;;;0.98;0.30;;;9.80;99.90;;;;;;6253303;22;20018;-81
2022/12/20 10:06:03;;;;;;;1.17;0.40;;;9.80;99.90;;;;;;6278902;22;20355;-80
2022/12/20 10:08:37;;;;;;;1.10;0.40;;;9.80;99.90;;;;;;6276107;22;20008;-79
2022/12/20 10:11:41;;;;;;;1.60;0.40;;;9.80;99.90;;;;;;6271958;22;20023;-79
2022/12/20 10:14:35;;;;;;;1.33;0.40;;;9.80;99.90;;;;;;6255085;22;20019;-79
2022/12/20 10:17:07;;;;;;;1.98;0.40;;;9.80;99.90;;;;;;6255758;22;20026;-79
2022/12/20 10:20:02;;;;;;;1.45;0.40;;;9.80;99.90;;;;;;6282369;22;20122;-78
2022/12/20 10:22:48;;;;;;;0.82;0.30;;;9.80;99.90;;;;;;6276947;22;20011;-79
2022/12/20 10:25:24;;;;;;;1.73;0.35;;;9.80;99.90;;;;;;6233596;22;20785;-79
2022/12/20 10:27:55;;;;;;;0.90;0.30;;;9.80;99.90;;;;;;6280472;22;20908;-79
2022/12/20 10:30:25;;;;;;;2.30;0.40;;;9.80;99.90;;;;;;6277318;22;20223;-79
2022/12/20 10:32:55;;;;;;;1.25;0.30;;;9.80;99.90;;;;;;6205513;22;20019;-79
2022/12/20 10:35:36;;;;;;;1.52;0.38;;;9.80;99.90;;;;;;6255857;22;20553;-80
2022/12/20 10:38:11;;;;;;;1.05;0.30;;;9.80;99.90;;;;;;6257328;22;20091;-79
2022/12/20 10:41:02;;;;;;;1.92;0.38;;;9.90;99.90;;;;;;6278025;22;20019;-79
2022/12/20 10:43:42;;;;;;;2.17;0.40;;;9.90;99.90;;;;;;6281020;22;20011;-79
2022/12/20 10:46:09;;;;;;;2.83;0.43;;;9.90;99.90;;;;;;6284300;22;20082;-78
2022/12/20 10:48:37;;;;;;;1.05;0.30;;;9.90;99.90;;;;;;6253622;22;20522;-78
2022/12/20 10:51:14;;;;;;;0.98;0.30;;;10.00;99.90;;;;;;6280028;22;20355;-78
2022/12/20 10:54:01;;;;;;;1.05;0.30;;;10.00;99.90;;;;;;6281260;22;20011;-78
2022/12/20 10:56:32;;;;;;;1.80;0.38;;;10.00;99.90;;;;;;6251476;22;20030;-78
2022/12/20 10:59:01;;;;;;;2.40;0.40;;;10.10;99.90;;;;;;6277752;22;20019;-79
2022/12/20 11:01:35;;;;;;;0.90;0.30;;;10.10;99.90;;;;;;6280271;22;20687;-79
2022/12/20 11:04:06;;;;;;;2.03;0.35;;;10.00;99.90;;;;;;6280933;22;20015;-79
2022/12/20 11:06:40;;;;;;;1.67;0.30;;;10.10;99.90;;;;;;6282631;22;20057;-79
2022/12/20 11:09:30;;;;;;;1.13;0.40;;;10.10;99.90;;;;;;6283664;22;20455;-78
2022/12/20 11:12:13;;;;;;;0.80;0.30;;;10.10;99.90;;;;;;6281429;22;20064;-79
2022/12/20 11:14:41;;;;;;;1.45;0.43;;;10.10;99.90;;;;;;6274727;22;20011;-78
2022/12/20 11:17:30;;;;;;;2.65;0.50;;;10.10;99.90;;;;;;6256148;22;20011;-79
2022/12/20 11:20:22;;;;;;;2.35;0.40;;;10.10;99.90;;;;;;6279903;22;20022;-78
2022/12/20 11:23:13;;;;;;;2.03;0.30;;;10.10;99.90;;;;;;6274544;22;20023;-78
2022/12/20 11:26:26;;;;;;;1.80;0.47;;;10.10;99.90;;;;;;6281356;22;20014;-79
2022/12/20 11:29:07;;;;;;;1.40;0.47;;;10.00;99.90;;;;;;6272673;22;20008;-79
2022/12/20 11:31:51;;;;;;;2.17;0.40;;;10.00;99.90;;;;;;6281353;22;20007;-79
2022/12/20 11:34:20;;;;;;;1.65;0.40;;;10.00;99.90;;;;;;6282686;22;20004;-78
2022/12/20 11:37:15;;;;;;;1.67;0.38;;;10.00;99.90;;;;;;6278428;22;20012;-78
2022/12/20 11:40:10;;;;;;;1.58;0.50;;;10.00;99.90;;;;;;6268212;22;20015;-80
2022/12/20 11:43:17;;;;;;;2.72;0.50;;;10.00;99.90;;;;;;6281001;22;20007;-78
2022/12/20 11:46:06;;;;;;;2.28;0.52;;;10.00;99.90;;;;;;6282380;22;20019;-78
2022/12/20 11:49:16;;;;;;;2.50;0.50;;;10.00;99.90;;;;;;6182824;23;20062;-79
2022/12/20 11:51:46;;;;;;;4.72;0.75;;;10.00;99.90;;;;;;6216331;23;20441;-77
2022/12/20 11:54:32;;;;;;;2.03;0.70;;;10.10;99.90;;;;;;6216559;23;20019;-78
2022/12/20 11:57:12;;;;;;;1.42;0.50;;;10.10;99.90;;;;;;6209852;23;20858;-78
2022/12/20 11:59:39;;;;;;;;;;;10.20;99.90;;;;;;6215668;23;20220;-78
2022/12/20 12:02:11;;;;;;;3.15;0.60;;;10.20;99.90;;;;;;6218961;23;19907;-78
2022/12/20 12:05:06;;;;;;;1.38;0.50;;;10.10;99.90;;;;;;6220206;23;20498;-78
2022/12/20 12:07:38;;;;;;;1.48;0.50;;;10.10;99.90;;;;;;6168717;23;20008;-78
2022/12/20 12:10:31;;;;;;;1.20;0.50;;;10.20;99.90;;;;;;6219845;23;20042;-78
2022/12/20 12:13:06;;;;;;;1.90;0.40;;;10.20;99.90;;;;;;6194265;23;20016;-79
2022/12/20 12:15:59;;;;;;;1.40;0.63;;;10.20;99.90;;;;;;6219348;23;20019;-79
2022/12/20 12:18:30;;;;;;;2.17;0.60;;;10.30;99.90;;;;;;6214907;23;20865;-78
2022/12/20 12:21:04;;;;;;;4.45;0.50;;;10.20;99.90;;;;;;6164834;23;20080;-78
2022/12/20 12:23:44;;;;;;;1.40;0.50;;;10.30;99.90;;;;;;6219689;23;20012;-78
2022/12/20 12:26:24;;;;;;;2.25;0.98;;;10.30;99.90;;;;;;6240185;22;20007;-78
2022/12/20 12:29:08;;;;;;;3.67;0.80;;;10.30;99.90;;;;;;6256681;22;20011;-78
2022/12/20 12:31:54;;;;;;;4.32;1.02;;;10.30;99.90;;;;;;6254799;22;20011;-78
2022/12/20 12:34:29;;;;;;;1.95;1.13;;;10.30;99.90;;;;;;6283982;22;20039;-78
2022/12/20 12:37:33;;;;;;;1.90;0.70;;;10.30;99.90;;;;;;6282966;22;20007;-78
2022/12/20 12:40:27;;;;;;;2.83;0.80;;;10.30;99.90;;;;;;6283412;22;20023;-78
2022/12/20 12:43:14;;;;;;;1.45;0.60;;;10.30;99.90;;;;;;6282569;22;20442;-78
2022/12/20 12:46:01;;;;;;;2.90;0.80;;;10.30;99.90;;;;;;6282795;22;20082;-79
2022/12/20 12:48:30;;;;;;;2.55;0.63;;;10.30;99.90;;;;;;6264837;22;20026;-81
2022/12/20 12:50:57;;;;;;;1.80;0.82;;;10.30;99.90;;;;;;6292010;22;20011;-81
2022/12/20 12:53:42;;;;;;;2.50;0.90;;;10.30;99.90;;;;;;6292523;22;20019;-80
2022/12/20 12:56:39;;;;;;;2.63;0.90;;;10.30;99.90;;;;;;6294266;22;20034;-79
2022/12/20 12:59:05;;;;;;;2.13;0.60;;;10.20;99.90;;;;;;6280936;22;20019;-78
2022/12/20 13:01:47;;;;;;;1.65;0.60;;;10.30;99.90;;;;;;6295447;22;20008;-79
2022/12/20 13:04:18;;;;;;;2.08;0.60;;;10.30;99.90;;;;;;6292195;22;20415;-81
2022/12/20 13:06:47;;;;;;;1.75;0.60;;;10.30;99.90;;;;;;6292756;22;20022;-78
2022/12/20 13:09:25;;;;;;;1.45;0.50;;;10.20;99.90;;;;;;6280590;22;20076;-79
2022/12/20 13:11:56;;;;;;;3.00;0.50;;;10.20;99.90;;;;;;6248658;22;20395;-78
2022/12/20 13:14:24;;;;;;;2.72;0.70;;;10.20;99.90;;;;;;6247509;22;20400;-80
2022/12/20 13:17:03;;;;;;;1.90;0.50;;;10.20;99.90;;;;;;6281131;22;20523;-78
2022/12/20 13:19:35;;;;;;;3.50;0.70;;;10.20;99.90;;;;;;6272056;22;20105;-79
2022/12/20 13:22:15;;;;;;;1.95;0.65;;;10.20;99.90;;;;;;6279831;22;20570;-78
2022/12/20 13:25:02;;;;;;;3.08;0.85;;;10.20;99.90;;;;;;6254134;22;20431;-79
2022/12/20 13:27:39;;;;;;;1.55;0.60;;;10.20;99.90;;;;;;6280775;22;20008;-79
2022/12/20 13:30:11;;;;;;;1.60;0.60;;;10.20;99.90;;;;;;6281069;22;20343;-79
2022/12/20 13:32:45;;;;;;;1.98;0.57;;;10.20;99.90;;;;;;6279758;22;20014;-79
2022/12/20 13:35:23;;;;;;;1.52;0.57;;;10.20;99.90;;;;;;6254359;22;20011;-81
2022/12/20 13:38:09;;;;;;;2.53;0.70;;;10.20;99.90;;;;;;6280841;22;20064;-81
2022/12/20 13:40:43;;;;;;;2.55;0.70;;;10.20;99.90;;;;;;6232513;22;20520;-81
2022/12/20 13:43:18;;;;;;;3.92;0.90;;;10.20;99.90;;;;;;6252693;22;20646;-81
2022/12/20 13:45:47;;;;;;;1.83;0.70;;;10.20;99.90;;;;;;6282740;22;20042;-80
2022/12/20 13:48:21;;;;;;;3.50;1.40;;;10.20;99.90;;;;;;6280250;22;20052;-79
2022/12/20 13:50:53;;;;;;;2.00;1.02;;;10.20;99.90;;;;;;6305292;22;20015;-79
2022/12/20 13:53:21;;;;;;;4.70;1.38;;;10.20;99.90;;;;;;6253146;22;20014;-81
2022/12/20 13:55:49;;;;;;;4.93;1.85;;;10.20;99.90;;;;;;6259116;22;20022;-80
2022/12/20 13:58:21;;;;;;;3.00;1.13;;;10.20;99.90;;;;;;6265048;22;20015;-81
2022/12/20 14:00:48;;;;;;;2.45;0.88;;;10.20;99.90;;;;;;6264433;22;20053;-80
2022/12/20 14:03:26;;;;;;;3.30;0.90;;;10.20;99.90;;;;;;6290790;22;20026;-81
2022/12/20 14:05:58;;;;;;;1.45;0.68;;;10.20;99.90;;;;;;6284325;22;20007;-79
2022/12/20 14:08:31;;;;;;;3.78;0.80;;;10.20;99.90;;;;;;6258206;22;20316;-80
2022/12/20 14:11:09;;;;;;;2.35;0.80;;;10.20;99.90;;;;;;6265969;22;20344;-83
2022/12/20 14:13:34;;;;;;;2.92;0.77;;;10.20;99.90;;;;;;6265421;22;20011;-80
2022/12/20 14:16:12;;;;;;;1.92;0.60;;;10.10;99.90;;;;;;6266683;22;20419;-81
2022/12/20 14:18:38;;;;;;;1.20;0.50;;;10.20;99.90;;;;;;6262333;22;20023;-81
2022/12/20 14:21:05;;;;;;;1.70;0.50;;;10.10;99.90;;;;;;6290553;22;20296;-80
2022/12/20 14:23:39;;;;;;;2.95;0.85;;;10.10;99.90;;;;;;6265322;22;20038;-80
2022/12/20 14:26:09;;;;;;;2.85;0.88;;;10.10;99.90;;;;;;6291017;22;20003;-80
2022/12/20 14:28:40;;;;;;;2.35;0.80;;;10.10;99.90;;;;;;6292107;22;20090;-80
2022/12/20 14:31:27;;;;;;;2.10;0.70;;;10.10;99.90;;;;;;6266096;22;20434;-80
2022/12/20 14:34:10;;;;;;;2.00;0.60;;;10.10;99.90;;;;;;6291085;22;20007;-80
2022/12/20 14:36:41;;;;;;;1.60;0.80;;;10.10;99.90;;;;;;6291707;22;20007;-80
2022/12/20 14:39:30;;;;;;;1.33;0.50;;;10.10;99.90;;;;;;6292710;22;20316;-80
2022/12/20 14:42:19;;;;;;;2.97;1.00;;;10.10;99.90;;;;;;6293869;22;20053;-79
2022/12/20 14:44:46;;;;;;;2.15;1.23;;;10.10;99.90;;;;;;6316856;22;20007;-79
2022/12/20 14:47:26;;;;;;;1.60;0.70;;;10.10;99.90;;;;;;6290998;22;20011;-79
2022/12/20 14:49:57;;;;;;;;;;;10.10;99.90;;;;;;6294042;22;20010;-80